Palmyra, NY

6:14 AM EDT on August 31, 2014 (GMT -0400)
KNYPALMY2 | Change Station
CLOSE
Current Station
Personal Weather Station
Location: Palmyra, NY
Elevation: 907 ft
Nearby Weather Stations

Elev 907 ft 43.07 °N, 77.23 °W | Updated 16 seconds ago

Rain
Rain
71.0 °F
Feels Like 71.0 °F
N
0.0
Wind Variable Wind from SSE
Gusts 7.0 mph

Today
High -- | Low -- °F
--% Chance of Precip.
Yesterday
High -- | Low -- °F
Precip. -- in
6:32 AM 7:45 PM
Waxing Crescent, 29% visible
Pressure 29.96 in
Visibility 6.0 miles
Clouds Scattered Clouds 3000 ft
Mostly Cloudy 10000 ft
Mostly Cloudy 20000 ft
Dew Point 69 °F
Humidity 93%
Rainfall 0.15 in
Snow Depth Not available.
UV 0.0 out of 12
Pollen 9.60 out of 12
Air Quality Not available.
Flu Activity Not available.
METAR KROC 310954Z 22007KT 6SM -RA BR SCT030 BKN100 BKN200 22/21 A2997 RMK AO2 RAB09 SLP146 P0002 T02220206

More Conditions Fewer Conditions

Pressure 29.96 in
Visibility 6.0 miles
Clouds Scattered Clouds 3000 ft
Mostly Cloudy 10000 ft
Mostly Cloudy 20000 ft
Dew Point 69 °F
Humidity 93%
Rainfall 0.15 in
Snow Depth Not available.
UV 0.0 out of 12
Pollen 9.60 out of 12
Air Quality Not available.
Flu Activity Not available.
METAR KROC 310954Z 22007KT 6SM -RA BR SCT030 BKN100 BKN200 22/21 A2997 RMK AO2 RAB09 SLP146 P0002 T02220206

More Conditions Fewer Conditions

10-Day Weather Forecast

Almanac

Astronomy

Aug. 31, 2014 Rise Set
Actual Time 6:32 AM EDT 7:45 PM EDT
Civil Twilight 6:02 AM EDT 8:14 PM EDT
Nautical Twilight 5:27 AM EDT 8:49 PM EDT
Astronomical Twilight 4:50 AM EDT 9:26 PM EDT
Moon 12:26 PM EDT 10:49 PM EDT
Length of Visible Light 14h 11m
Length of Day
13h 13m
Tomorrow will be 2m 50s shorter.
Waxing Crescent, 29% of the Moon is Illuminated
Today
Waxing Crescent
Sep 2
First Quarter
Sep 8
Full
Sep 15
Last Quarter
Sep 24
New

Today's Extremes

State Highs State Lows

Community

WunderPhotos

Upload Photos

1,748,834 photos uploaded!

Nearby

Air Quality

  Air Quality AQ Index Pollutant
Sunday Good
PM2.5
Sunday Good
OZONE
Monday Moderate
OZONE
Monday Moderate
PM2.5
Tuesday Good
PM2.5
Tuesday Good
OZONE

Snow Depth

Station Depth Elevation
No new snow has been reported.

Earthquake Activity

City Distance Mag. Time & Date
No recent earthquake activity has been reported nearby.
Minimum magnitude displayed is 2.5.

Coastal Water Temperatures

Place Temperature
Buffalo, NY 73.0 °F
Alexandria Bay, NY 69.1 °F

Nearby Weather Stations